Time;durP1;ratioP1;P1;durP2;ratioP2;P2;SDS_P1;SDS_P2;PMS_P1;PMS_P2;Temp;Humidity;BMP_temperature;BMP_pressure;BME280_temperature;BME280_humidity;BME280_pressure;Samples;Min_cycle;Max_cycle;Signal;HPM_P1;HPM_P2
2023/03/27 00:00:27;;;;;;;2.13;1.00;;;2.30;99.90;;;;;;5097177;28;20052;-81
2023/03/27 00:02:53;;;;;;;3.13;0.98;;;2.40;99.90;;;;;;5096592;28;20444;-81
2023/03/27 00:05:19;;;;;;;11.70;1.85;;;2.80;99.90;;;;;;5079778;28;20044;-80
2023/03/27 00:07:47;;;;;;;4.22;1.10;;;2.20;99.90;;;;;;5079644;28;20048;-81
2023/03/27 00:10:14;;;;;;;4.53;1.23;;;2.10;99.90;;;;;;5096808;28;20040;-80
2023/03/27 00:12:42;;;;;;;4.50;1.10;;;2.30;99.90;;;;;;5078363;28;20546;-80
2023/03/27 00:15:14;;;;;;;2.75;1.10;;;2.00;99.90;;;;;;5096703;28;20048;-80
2023/03/27 00:17:41;;;;;;;2.72;1.23;;;1.90;99.90;;;;;;5096633;28;20472;-79
2023/03/27 00:20:07;;;;;;;3.63;1.08;;;2.60;99.90;;;;;;5062251;28;20086;-80
2023/03/27 00:22:33;;;;;;;4.85;0.98;;;1.80;99.90;;;;;;5096507;28;20048;-80
2023/03/27 00:24:58;;;;;;;4.70;1.20;;;1.90;99.90;;;;;;5096501;28;20092;-80
2023/03/27 00:27:24;;;;;;;5.10;1.55;;;1.70;99.90;;;;;;5078630;28;20097;-80
2023/03/27 00:29:52;;;;;;;5.97;1.17;;;2.10;99.90;;;;;;5096365;28;20079;-80
2023/03/27 00:32:19;;;;;;;3.25;1.10;;;1.70;99.90;;;;;;5078480;28;20051;-80
2023/03/27 00:34:45;;;;;;;5.28;1.50;;;1.70;99.90;;;;;;5096688;28;20058;-80
2023/03/27 00:37:11;;;;;;;2.65;1.08;;;1.80;99.90;;;;;;5096327;28;20055;-80
2023/03/27 00:39:38;;;;;;;3.03;0.95;;;1.70;99.90;;;;;;5078770;28;20044;-80
2023/03/27 00:42:04;;;;;;;2.85;1.20;;;2.20;99.90;;;;;;5079052;28;20058;-80
2023/03/27 00:44:34;;;;;;;3.53;1.27;;;1.70;99.90;;;;;;5096054;28;20048;-80
2023/03/27 00:47:01;;;;;;;3.60;1.25;;;1.70;99.90;;;;;;5096115;28;20044;-80
2023/03/27 00:49:32;;;;;;;5.07;1.48;;;1.70;99.90;;;;;;5096073;28;20040;-80
2023/03/27 00:52:00;;;;;;;5.78;1.45;;;1.80;99.90;;;;;;5096601;28;20128;-80
2023/03/27 00:54:29;;;;;;;3.88;1.00;;;1.80;99.90;;;;;;5061017;28;20095;-80
2023/03/27 00:57:04;;;;;;;4.40;1.42;;;1.70;99.90;;;;;;5078070;28;20052;-79
2023/03/27 00:59:34;;;;;;;6.57;1.25;;;1.70;99.90;;;;;;5078624;28;20036;-80
2023/03/27 01:02:02;;;;;;;3.92;0.90;;;1.70;99.90;;;;;;5095821;28;20132;-80
2023/03/27 01:04:30;;;;;;;3.25;1.10;;;2.10;99.90;;;;;;5095404;28;20480;-80
2023/03/27 01:06:57;;;;;;;4.20;1.42;;;2.10;99.90;;;;;;5078619;28;20046;-80
2023/03/27 01:09:25;;;;;;;4.20;1.10;;;1.80;99.90;;;;;;5077883;28;20048;-79
2023/03/27 01:12:29;;;;;;;4.38;1.20;;;1.80;99.90;;;;;;5095483;28;20060;-80
2023/03/27 01:15:05;;;;;;;5.90;1.20;;;1.80;99.90;;;;;;5059525;28;20128;-80
2023/03/27 01:17:31;;;;;;;2.45;0.77;;;1.80;99.90;;;;;;5078582;28;20195;-80
2023/03/27 01:20:06;;;;;;;3.17;1.02;;;1.90;99.90;;;;;;5077529;28;20564;-80
2023/03/27 01:23:09;;;;;;;3.53;1.00;;;1.90;99.90;;;;;;5096245;28;20127;-80
2023/03/27 01:26:09;;;;;;;5.80;1.60;;;1.90;99.90;;;;;;5095353;28;20109;-80
2023/03/27 01:28:59;;;;;;;2.53;0.90;;;1.90;99.90;;;;;;5060521;28;20055;-80
2023/03/27 01:31:42;;;;;;;4.30;1.20;;;1.80;99.90;;;;;;5077733;28;20040;-80
2023/03/27 01:34:24;;;;;;;6.78;2.17;;;1.80;99.90;;;;;;5095788;28;20044;-80
2023/03/27 01:37:04;;;;;;;3.00;1.08;;;1.70;99.90;;;;;;5077153;28;20058;-80
2023/03/27 01:39:33;;;;;;;6.15;1.40;;;1.70;99.90;;;;;;5095128;28;20400;-79
2023/03/27 01:42:14;;;;;;;3.20;0.90;;;1.60;99.90;;;;;;5077098;28;20388;-80
2023/03/27 01:44:45;;;;;;;6.47;1.30;;;1.50;99.90;;;;;;5095027;28;20053;-79
2023/03/27 01:47:17;;;;;;;2.38;1.00;;;1.50;99.90;;;;;;5095332;28;20086;-79
2023/03/27 01:49:50;;;;;;;4.15;1.10;;;1.40;99.90;;;;;;5077019;28;20342;-80
2023/03/27 01:52:28;;;;;;;7.30;1.20;;;1.40;99.90;;;;;;5077352;28;20048;-79
2023/03/27 01:55:02;;;;;;;3.47;1.17;;;1.40;99.90;;;;;;5077754;28;20396;-79
2023/03/27 01:57:34;;;;;;;6.88;2.00;;;1.30;99.90;;;;;;5095355;28;20044;-78
2023/03/27 02:00:16;;;;;;;3.03;1.08;;;1.30;99.90;;;;;;5095195;28;20056;-78
2023/03/27 02:02:52;;;;;;;4.57;1.10;;;1.30;99.90;;;;;;5078438;28;20044;-79
2023/03/27 02:05:39;;;;;;;4.03;0.90;;;1.40;99.90;;;;;;5076830;28;20540;-78
2023/03/27 02:08:18;;;;;;;2.92;1.00;;;1.40;99.90;;;;;;5093945;28;20094;-78
2023/03/27 02:10:49;;;;;;;2.80;0.90;;;1.50;99.90;;;;;;5094379;28;20095;-78
2023/03/27 02:13:21;;;;;;;2.40;1.13;;;1.50;99.90;;;;;;5094442;28;20138;-78
2023/03/27 02:15:49;;;;;;;4.18;0.88;;;1.40;99.90;;;;;;5077416;28;20048;-79
2023/03/27 02:18:38;;;;;;;7.55;1.38;;;1.40;99.90;;;;;;5077025;28;20048;-78
2023/03/27 02:21:05;;;;;;;3.75;1.02;;;1.40;99.90;;;;;;5076124;28;20398;-79
2023/03/27 02:23:31;;;;;;;6.07;1.00;;;1.40;99.90;;;;;;5076369;28;20051;-78
2023/03/27 02:25:58;;;;;;;7.20;1.40;;;2.00;99.90;;;;;;5077182;28;20043;-77
2023/03/27 02:28:39;;;;;;;5.05;1.10;;;2.10;99.90;;;;;;5076326;28;20044;-78
2023/03/27 02:31:18;;;;;;;4.63;0.90;;;1.40;99.90;;;;;;5094907;28;20040;-78
2023/03/27 02:34:23;;;;;;;8.68;2.97;;;2.00;99.90;;;;;;5094863;28;20052;-79
2023/03/27 02:37:18;;;;;;;4.15;1.13;;;1.30;99.90;;;;;;5076997;28;20051;-79
2023/03/27 02:39:59;;;;;;;3.95;1.52;;;1.40;99.90;;;;;;5075935;28;20032;-79
2023/03/27 02:42:44;;;;;;;4.18;1.17;;;1.50;99.90;;;;;;5093990;28;20047;-79
2023/03/27 02:45:23;;;;;;;8.02;1.45;;;1.20;99.90;;;;;;5094644;28;20386;-79
2023/03/27 02:48:24;;;;;;;4.13;1.42;;;1.20;99.90;;;;;;5076343;28;20044;-79
2023/03/27 02:50:55;;;;;;;3.65;0.95;;;1.30;99.90;;;;;;5076101;28;20052;-79
2023/03/27 02:53:24;;;;;;;4.00;1.38;;;1.10;99.90;;;;;;5093828;28;20052;-78
2023/03/27 02:55:54;;;;;;;3.58;0.93;;;1.10;99.90;;;;;;5094311;28;20044;-78
2023/03/27 02:58:43;;;;;;;3.97;0.90;;;1.10;99.90;;;;;;5094258;28;20055;-79
2023/03/27 03:01:12;;;;;;;4.07;1.02;;;1.10;99.90;;;;;;5093632;28;20048;-78
2023/03/27 03:03:53;;;;;;;5.35;1.10;;;1.10;99.90;;;;;;5075834;28;20079;-78
2023/03/27 03:06:28;;;;;;;3.22;0.98;;;1.00;99.90;;;;;;5094433;28;20173;-78
2023/03/27 03:09:00;;;;;;;1.77;0.80;;;1.00;99.90;;;;;;5075777;28;20050;-79
2023/03/27 03:11:27;;;;;;;7.03;1.73;;;1.00;99.90;;;;;;5076235;28;20380;-79
2023/03/27 03:13:54;;;;;;;2.70;1.10;;;1.30;99.90;;;;;;5093434;28;20056;-79
2023/03/27 03:16:20;;;;;;;4.05;1.08;;;1.70;99.90;;;;;;5093503;28;20059;-80
2023/03/27 03:18:46;;;;;;;5.20;1.25;;;1.80;99.90;;;;;;5093273;28;20484;-79
2023/03/27 03:21:12;;;;;;;5.38;1.05;;;1.70;99.90;;;;;;5075284;28;20047;-78
2023/03/27 03:23:38;;;;;;;2.15;0.85;;;1.20;99.90;;;;;;5076170;28;20051;-77
2023/03/27 03:26:05;;;;;;;6.03;1.80;;;1.20;99.90;;;;;;5093874;28;20429;-78
2023/03/27 03:28:34;;;;;;;3.97;1.00;;;1.30;99.90;;;;;;5093384;28;20052;-79
2023/03/27 03:31:02;;;;;;;3.30;1.15;;;1.30;99.90;;;;;;5058827;28;20481;-78
2023/03/27 03:33:28;;;;;;;2.95;1.00;;;1.30;99.90;;;;;;5093347;28;20051;-79
2023/03/27 03:35:59;;;;;;;4.03;1.08;;;1.40;99.90;;;;;;5093353;28;20090;-79
2023/03/27 03:38:27;;;;;;;2.38;0.90;;;1.40;99.90;;;;;;5075786;28;20044;-79
2023/03/27 03:40:58;;;;;;;1.58;0.80;;;1.40;99.90;;;;;;5075993;28;20411;-78
2023/03/27 03:43:26;;;;;;;2.92;0.90;;;1.40;99.90;;;;;;5093629;28;20048;-78
2023/03/27 03:45:52;;;;;;;2.38;0.90;;;1.40;99.90;;;;;;5075377;28;20101;-79
2023/03/27 03:48:19;;;;;;;3.80;1.10;;;1.70;99.90;;;;;;5075624;28;20087;-79
2023/03/27 03:50:46;;;;;;;3.63;1.00;;;1.40;99.90;;;;;;5093184;28;20044;-77
2023/03/27 03:53:17;;;;;;;2.95;1.10;;;1.10;99.90;;;;;;5075343;28;20045;-79
2023/03/27 03:55:44;;;;;;;2.75;0.90;;;1.10;99.90;;;;;;5076113;28;20059;-77
2023/03/27 03:58:10;;;;;;;2.72;1.00;;;1.10;99.90;;;;;;5075259;28;20080;-79
2023/03/27 04:00:37;;;;;;;4.35;1.10;;;1.40;99.90;;;;;;5092926;28;20036;-78
2023/03/27 04:03:05;;;;;;;4.97;0.98;;;1.40;99.90;;;;;;5093082;28;20047;-78
2023/03/27 04:05:31;;;;;;;5.90;1.02;;;1.10;99.90;;;;;;5075449;28;20101;-78
2023/03/27 04:08:01;;;;;;;4.57;1.92;;;1.10;99.90;;;;;;5092736;28;20508;-78
2023/03/27 04:10:28;;;;;;;3.42;1.13;;;1.00;99.90;;;;;;5092798;28;20040;-78
2023/03/27 04:12:55;;;;;;;2.58;0.90;;;1.10;99.90;;;;;;5075077;28;20059;-78
2023/03/27 04:15:21;;;;;;;3.58;1.23;;;1.10;99.90;;;;;;5092840;28;20063;-77
2023/03/27 04:17:49;;;;;;;3.85;1.10;;;1.10;99.90;;;;;;5075873;28;20101;-78
2023/03/27 04:20:16;;;;;;;3.78;0.90;;;1.10;99.90;;;;;;5092835;28;20040;-78
2023/03/27 04:22:47;;;;;;;2.35;0.80;;;1.10;99.90;;;;;;5075158;28;20040;-78
2023/03/27 04:25:16;;;;;;;6.88;1.02;;;1.50;99.90;;;;;;5092908;28;20362;-78
2023/03/27 04:27:42;;;;;;;3.63;0.90;;;1.10;99.90;;;;;;5074604;28;20059;-78
2023/03/27 04:30:14;;;;;;;2.35;0.98;;;1.10;99.90;;;;;;5093891;28;20489;-77
2023/03/27 04:32:40;;;;;;;4.70;1.30;;;1.10;99.90;;;;;;5097171;28;20056;-79
2023/03/27 04:35:09;;;;;;;6.78;1.10;;;1.10;99.90;;;;;;5096895;28;20513;-77
2023/03/27 04:37:39;;;;;;;2.03;0.95;;;1.00;99.90;;;;;;5096395;28;20471;-77
2023/03/27 04:40:05;;;;;;;3.15;1.05;;;1.80;99.90;;;;;;5078496;28;20044;-78
2023/03/27 04:42:31;;;;;;;3.00;1.60;;;0.90;99.90;;;;;;5078415;28;20051;-77
2023/03/27 04:44:57;;;;;;;2.20;1.13;;;0.90;99.90;;;;;;5078515;28;20044;-77
2023/03/27 04:47:22;;;;;;;6.72;1.30;;;0.90;99.90;;;;;;5078283;28;20044;-78
2023/03/27 04:49:49;;;;;;;2.65;1.20;;;0.90;99.90;;;;;;5078153;28;20092;-78
2023/03/27 04:52:16;;;;;;;2.42;0.80;;;1.60;99.90;;;;;;5096046;28;20055;-77
2023/03/27 04:54:43;;;;;;;3.95;1.00;;;0.90;99.90;;;;;;5096002;28;20121;-78
2023/03/27 04:57:10;;;;;;;3.65;1.10;;;1.10;99.90;;;;;;5095990;28;20090;-78
2023/03/27 04:59:36;;;;;;;3.67;1.20;;;0.90;99.90;;;;;;5078039;28;20048;-78
2023/03/27 05:02:03;;;;;;;5.32;1.85;;;1.00;99.90;;;;;;5077758;28;20511;-77
2023/03/27 05:04:30;;;;;;;3.90;1.73;;;1.10;99.90;;;;;;5096366;28;20044;-78
2023/03/27 05:06:58;;;;;;;1.90;0.85;;;1.00;99.90;;;;;;5095813;28;20050;-78
2023/03/27 05:09:24;;;;;;;4.22;1.00;;;1.10;99.90;;;;;;5095744;28;20423;-78
2023/03/27 05:11:51;;;;;;;4.00;1.45;;;1.00;99.90;;;;;;5077718;28;20417;-78
2023/03/27 05:14:21;;;;;;;3.00;0.80;;;1.80;99.90;;;;;;5078040;28;20044;-78
2023/03/27 05:16:49;;;;;;;3.58;1.30;;;1.00;99.90;;;;;;5077656;28;20044;-78
2023/03/27 05:19:15;;;;;;;2.28;1.00;;;1.00;99.90;;;;;;5094918;28;20101;-79
2023/03/27 05:21:41;;;;;;;4.05;1.25;;;1.00;99.90;;;;;;5095493;28;20431;-79
2023/03/27 05:24:08;;;;;;;5.70;1.10;;;1.00;99.90;;;;;;5095476;28;20055;-77
2023/03/27 05:26:34;;;;;;;4.18;1.15;;;1.00;99.90;;;;;;5077151;28;20075;-78
2023/03/27 05:29:00;;;;;;;5.50;1.10;;;1.20;99.90;;;;;;5061249;28;20545;-78
2023/03/27 05:31:27;;;;;;;3.67;1.20;;;1.60;99.90;;;;;;5095356;28;20139;-78
2023/03/27 05:33:53;;;;;;;5.00;1.95;;;1.00;99.90;;;;;;5095171;28;20046;-78
2023/03/27 05:36:21;;;;;;;4.25;1.35;;;0.90;99.90;;;;;;5077062;28;20569;-78
2023/03/27 05:38:47;;;;;;;6.13;1.80;;;0.90;99.90;;;;;;5077561;28;20086;-78
2023/03/27 05:41:14;;;;;;;3.90;1.13;;;1.00;99.90;;;;;;5093940;28;20040;-78
2023/03/27 05:43:41;;;;;;;3.40;1.20;;;0.90;99.90;;;;;;5095053;28;20051;-77
2023/03/27 05:46:07;;;;;;;3.05;1.10;;;0.90;99.90;;;;;;5077901;28;20465;-78
2023/03/27 05:48:33;;;;;;;2.92;1.17;;;1.50;99.90;;;;;;5077866;28;20052;-77
2023/03/27 05:50:59;;;;;;;2.75;1.00;;;0.90;99.90;;;;;;5077209;28;20047;-78
2023/03/27 05:53:25;;;;;;;4.25;1.20;;;1.00;99.90;;;;;;5094841;28;20043;-78
2023/03/27 05:55:51;;;;;;;9.35;1.95;;;2.10;99.90;;;;;;5076980;28;20087;-78
2023/03/27 05:58:17;;;;;;;5.07;1.20;;;1.20;99.90;;;;;;5077350;28;20091;-78
2023/03/27 06:00:43;;;;;;;3.42;1.33;;;1.90;99.90;;;;;;5076886;28;20040;-78
2023/03/27 06:03:12;;;;;;;4.53;1.23;;;1.10;99.90;;;;;;5076936;28;20071;-78
2023/03/27 06:05:40;;;;;;;2.63;0.95;;;1.10;99.90;;;;;;5094240;28;20485;-77
2023/03/27 06:08:12;;;;;;;4.50;1.50;;;1.80;99.90;;;;;;5077393;28;20056;-78
2023/03/27 06:10:42;;;;;;;4.50;1.33;;;1.80;99.90;;;;;;5059486;28;20040;-77
2023/03/27 06:13:11;;;;;;;3.15;1.23;;;1.20;99.90;;;;;;5095275;28;20059;-79
2023/03/27 06:15:40;;;;;;;7.50;1.63;;;1.20;99.90;;;;;;5094740;28;20538;-72
2023/03/27 06:18:06;;;;;;;4.60;1.13;;;1.30;99.90;;;;;;5094051;28;20481;-71
2023/03/27 06:20:34;;;;;;;3.67;1.08;;;1.40;99.90;;;;;;5094177;28;20048;-72
2023/03/27 06:23:02;;;;;;;3.80;1.15;;;1.50;99.90;;;;;;5094890;28;20055;-70
2023/03/27 06:25:32;;;;;;;4.70;1.45;;;1.70;99.90;;;;;;5094190;28;20051;-71
2023/03/27 06:27:58;;;;;;;4.15;1.40;;;1.60;99.90;;;;;;5076332;28;20048;-70
2023/03/27 06:30:25;;;;;;;2.90;1.50;;;1.60;99.90;;;;;;5077029;28;20074;-70
2023/03/27 06:32:57;;;;;;;3.65;1.13;;;1.60;99.90;;;;;;5094171;28;20083;-71
2023/03/27 06:35:24;;;;;;;4.38;1.27;;;1.70;99.90;;;;;;5094036;28;20066;-69
2023/03/27 06:37:50;;;;;;;4.80;1.73;;;1.80;99.90;;;;;;5075991;28;20051;-71
2023/03/27 06:40:21;;;;;;;2.47;0.90;;;1.80;99.90;;;;;;5093887;28;20051;-70
2023/03/27 06:42:56;;;;;;;5.45;1.02;;;1.90;99.90;;;;;;5076593;28;20410;-69
2023/03/27 06:45:24;;;;;;;3.33;0.80;;;2.00;99.90;;;;;;5094463;28;20482;-69
2023/03/27 06:47:52;;;;;;;2.75;1.00;;;2.70;99.90;;;;;;5076769;28;20119;-69
2023/03/27 06:50:19;;;;;;;4.25;0.90;;;2.10;99.90;;;;;;5076181;28;20094;-69
2023/03/27 06:52:47;;;;;;;2.95;0.85;;;2.20;99.90;;;;;;5093433;28;20048;-70
2023/03/27 06:55:14;;;;;;;2.78;0.80;;;2.50;99.90;;;;;;5093768;28;20101;-71
2023/03/27 06:57:45;;;;;;;3.72;1.13;;;2.30;99.90;;;;;;5075747;28;20140;-69
2023/03/27 07:00:23;;;;;;;1.60;0.80;;;2.40;99.90;;;;;;5094383;28;20044;-69
2023/03/27 07:02:53;;;;;;;4.07;0.80;;;2.50;99.90;;;;;;5093689;28;20047;-70
2023/03/27 07:05:19;;;;;;;2.88;0.75;;;2.60;99.90;;;;;;5076641;28;20431;-70
2023/03/27 07:07:45;;;;;;;3.00;0.65;;;2.70;99.90;;;;;;5094331;28;20043;-69
2023/03/27 07:10:12;;;;;;;1.90;0.80;;;2.80;99.90;;;;;;5094131;28;20036;-70
2023/03/27 07:12:42;;;;;;;4.47;1.00;;;3.00;99.90;;;;;;5094141;28;20428;-70
2023/03/27 07:15:09;;;;;;;3.28;1.13;;;3.00;99.90;;;;;;5075213;28;20050;-70
2023/03/27 07:17:35;;;;;;;3.72;0.90;;;3.10;99.90;;;;;;5075658;28;20052;-70
2023/03/27 07:20:02;;;;;;;1.33;0.70;;;3.20;99.90;;;;;;5093302;28;20048;-78
2023/03/27 07:22:28;;;;;;;3.88;0.90;;;3.20;99.90;;;;;;5074991;28;20052;-76
2023/03/27 07:24:54;;;;;;;2.60;0.73;;;3.30;99.90;;;;;;5075979;28;20549;-74
2023/03/27 07:27:20;;;;;;;3.17;0.60;;;3.40;99.90;;;;;;5093665;28;20044;-76
2023/03/27 07:29:45;;;;;;;2.95;0.80;;;3.50;99.90;;;;;;5076106;28;20040;-76
2023/03/27 07:32:11;;;;;;;1.48;0.70;;;3.60;99.90;;;;;;5076073;28;20134;-76
2023/03/27 07:34:37;;;;;;;1.20;0.50;;;3.60;99.90;;;;;;5075079;28;20040;-76
2023/03/27 07:37:03;;;;;;;2.75;0.60;;;4.10;99.90;;;;;;5075604;28;20044;-75
2023/03/27 07:39:28;;;;;;;2.90;0.88;;;3.70;99.90;;;;;;5092739;28;20044;-75
2023/03/27 07:41:54;;;;;;;2.78;0.70;;;3.80;99.90;;;;;;5094007;28;20055;-76
2023/03/27 07:44:20;;;;;;;5.28;1.10;;;3.80;99.90;;;;;;5075401;28;20588;-76
2023/03/27 07:46:46;;;;;;;1.80;0.85;;;3.80;99.90;;;;;;5092870;28;20044;-76
2023/03/27 07:49:12;;;;;;;1.70;0.77;;;3.90;99.90;;;;;;5093068;28;20063;-75
2023/03/27 07:51:38;;;;;;;3.10;0.70;;;3.90;99.90;;;;;;5093497;28;20040;-76
2023/03/27 07:54:05;;;;;;;1.05;0.55;;;3.90;99.90;;;;;;5093032;28;20084;-76
2023/03/27 07:56:34;;;;;;;2.90;0.70;;;4.00;99.90;;;;;;5093013;28;20079;-76
2023/03/27 07:59:00;;;;;;;1.88;0.80;;;4.00;99.90;;;;;;5058355;28;20507;-79
2023/03/27 08:01:26;;;;;;;3.38;0.80;;;4.10;99.90;;;;;;5075519;28;20048;-76
2023/03/27 08:03:52;;;;;;;2.72;0.90;;;4.20;99.90;;;;;;5093476;28;20084;-80
2023/03/27 08:06:18;;;;;;;5.68;1.30;;;4.40;99.90;;;;;;5078252;28;20051;-77
2023/03/27 08:08:44;;;;;;;4.22;1.13;;;4.40;99.90;;;;;;5096797;28;20040;-76
2023/03/27 08:11:10;;;;;;;2.92;1.00;;;4.70;99.90;;;;;;5096273;28;20137;-76
2023/03/27 08:13:36;;;;;;;1.73;0.70;;;4.60;99.90;;;;;;5062878;28;20051;-75
2023/03/27 08:16:08;;;;;;;1.85;0.70;;;4.60;99.90;;;;;;5096220;28;20517;-75
2023/03/27 08:18:35;;;;;;;3.00;0.88;;;4.70;99.90;;;;;;5096482;28;20052;-76
2023/03/27 08:21:02;;;;;;;2.55;0.95;;;4.70;99.90;;;;;;5096294;28;20089;-75
2023/03/27 08:23:29;;;;;;;4.93;1.00;;;4.90;99.90;;;;;;5078543;28;20059;-74
2023/03/27 08:25:59;;;;;;;2.88;0.95;;;5.00;99.90;;;;;;5096373;28;20040;-73
2023/03/27 08:28:29;;;;;;;3.88;0.90;;;5.10;99.90;;;;;;5079252;28;20090;-74
2023/03/27 08:30:55;;;;;;;1.90;0.80;;;5.30;99.90;;;;;;5096621;28;20477;-75
2023/03/27 08:33:22;;;;;;;4.88;1.20;;;5.50;99.90;;;;;;5096358;28;20044;-73
2023/03/27 08:35:51;;;;;;;5.50;1.25;;;5.70;99.90;;;;;;5096313;28;20055;-75
2023/03/27 08:38:17;;;;;;;2.10;0.80;;;5.80;99.90;;;;;;5078620;28;20056;-76
2023/03/27 08:40:52;;;;;;;1.20;0.60;;;5.30;99.90;;;;;;5078142;28;20043;-76
2023/03/27 08:43:26;;;;;;;1.48;0.60;;;4.70;99.90;;;;;;5097034;28;20411;-80
2023/03/27 08:46:06;;;;;;;1.23;0.50;;;4.20;99.90;;;;;;5096156;28;20055;-75
2023/03/27 08:48:51;;;;;;;1.90;0.70;;;4.00;99.90;;;;;;5095990;28;20048;-74
2023/03/27 08:51:23;;;;;;;2.85;0.70;;;3.90;99.90;;;;;;5078387;28;20372;-77
2023/03/27 08:54:17;;;;;;;5.88;0.80;;;3.90;99.90;;;;;;5078065;28;20534;-75
2023/03/27 08:56:44;;;;;;;2.55;0.95;;;4.00;99.90;;;;;;5095953;28;20070;-78
2023/03/27 08:59:16;;;;;;;3.47;1.30;;;4.00;99.90;;;;;;5061214;28;20051;-79
2023/03/27 09:01:52;;;;;;;2.78;0.93;;;4.50;99.90;;;;;;5078211;28;20040;-78
2023/03/27 09:04:33;;;;;;;1.90;0.90;;;4.30;99.90;;;;;;5078077;28;20047;-80
2023/03/27 09:07:01;;;;;;;2.90;0.70;;;4.40;99.90;;;;;;5078684;28;20380;-73
2023/03/27 09:09:58;;;;;;;1.30;0.73;;;4.40;99.90;;;;;;5095266;28;20374;-74
2023/03/27 09:12:54;;;;;;;3.45;0.95;;;4.50;99.90;;;;;;5077921;28;20055;-75
2023/03/27 09:15:24;;;;;;;2.35;0.80;;;4.70;99.90;;;;;;5095219;28;20131;-75
2023/03/27 09:18:32;;;;;;;3.00;0.80;;;4.80;99.90;;;;;;5077916;28;20062;-74
2023/03/27 09:21:20;;;;;;;2.28;1.20;;;5.00;99.90;;;;;;4978056;28;20046;-74
2023/03/27 09:23:46;;;;;;;2.38;0.70;;;5.10;99.90;;;;;;4993881;28;20078;-74
2023/03/27 09:26:12;;;;;;;7.03;1.65;;;5.40;99.90;;;;;;5058961;28;20056;-76
2023/03/27 09:28:53;;;;;;;2.45;0.93;;;5.50;99.90;;;;;;5095126;28;20161;-74
2023/03/27 09:31:27;;;;;;;2.10;1.27;;;5.60;99.90;;;;;;5095491;28;20542;-76
2023/03/27 09:33:56;;;;;;;3.17;0.80;;;5.70;99.90;;;;;;5095148;28;20048;-74
2023/03/27 09:36:25;;;;;;;2.15;1.05;;;5.80;99.90;;;;;;5076855;28;20073;-76
2023/03/27 09:38:57;;;;;;;3.50;0.73;;;5.90;99.90;;;;;;5076763;28;20538;-78
2023/03/27 09:41:43;;;;;;;3.35;0.80;;;6.10;99.90;;;;;;5077477;28;20165;-75
2023/03/27 09:44:24;;;;;;;2.90;0.85;;;6.20;99.90;;;;;;5094899;28;20052;-74
2023/03/27 09:47:29;;;;;;;5.38;1.67;;;6.20;99.90;;;;;;5094576;28;20044;-78
2023/03/27 09:50:00;;;;;;;3.17;0.95;;;6.10;99.90;;;;;;5059508;28;20556;-74
2023/03/27 09:52:39;;;;;;;3.08;1.00;;;6.30;99.90;;;;;;5094703;28;20052;-75
2023/03/27 09:55:49;;;;;;;3.00;0.90;;;6.30;99.90;;;;;;5076954;28;20087;-77
2023/03/27 09:58:26;;;;;;;2.05;0.80;;;6.10;99.90;;;;;;5047036;28;20052;-76
2023/03/27 10:01:07;;;;;;;3.25;0.75;;;6.00;99.90;;;;;;5094717;28;20051;-78
2023/03/27 10:03:59;;;;;;;1.98;1.23;;;6.10;99.90;;;;;;5094516;28;20051;-76
2023/03/27 10:06:41;;;;;;;4.13;1.05;;;6.40;99.90;;;;;;5076031;28;20595;-75
2023/03/27 10:09:28;;;;;;;2.10;0.60;;;6.70;99.90;;;;;;5094890;28;20051;-77
2023/03/27 10:12:06;;;;;;;1.08;0.50;;;6.90;99.90;;;;;;5094193;28;20052;-75
2023/03/27 10:14:34;;;;;;;1.80;0.93;;;6.50;99.90;;;;;;5076727;28;20501;-73
2023/03/27 10:17:04;;;;;;;2.13;0.73;;;6.30;99.90;;;;;;5094412;28;20097;-75
2023/03/27 10:19:37;;;;;;;3.45;1.40;;;6.50;99.90;;;;;;5094196;28;20051;-75
2023/03/27 10:22:32;;;;;;;3.75;0.75;;;6.80;99.90;;;;;;5095022;28;20131;-76
2023/03/27 10:25:01;;;;;;;2.20;0.60;;;6.60;99.90;;;;;;5077074;28;20048;-77
2023/03/27 10:27:32;;;;;;;2.65;0.80;;;7.20;99.90;;;;;;5076460;28;20068;-79
2023/03/27 10:29:57;;;;;;;1.73;0.60;;;7.50;99.90;;;;;;5076983;28;20105;-77
2023/03/27 10:32:43;;;;;;;2.30;1.35;;;7.70;99.90;;;;;;5059367;28;20043;-82
2023/03/27 10:35:33;;;;;;;3.70;0.60;;;7.70;99.90;;;;;;5059476;28;20044;-74
2023/03/27 10:38:01;;;;;;;1.08;0.60;;;7.80;99.90;;;;;;5076740;28;20051;-75
2023/03/27 10:40:30;;;;;;;2.33;1.00;;;7.70;99.90;;;;;;5094591;28;20062;-75
2023/03/27 10:42:58;;;;;;;1.58;0.50;;;7.40;99.90;;;;;;5075863;28;20040;-76
2023/03/27 10:45:24;;;;;;;1.88;0.57;;;7.30;99.90;;;;;;5093514;28;20059;-77
2023/03/27 10:47:55;;;;;;;1.17;0.60;;;7.50;99.90;;;;;;5076449;28;20423;-76
2023/03/27 10:50:32;;;;;;;3.10;1.05;;;7.70;99.90;;;;;;5076008;28;20092;-74
2023/03/27 10:53:20;;;;;;;1.40;0.50;;;8.00;99.90;;;;;;5094126;28;20055;-74
2023/03/27 10:55:56;;;;;;;0.80;0.50;;;8.30;99.90;;;;;;5094217;28;20094;-75
2023/03/27 10:58:34;;;;;;;2.15;0.57;;;8.60;99.90;;;;;;5093758;28;20044;-74
2023/03/27 11:01:25;;;;;;;1.50;0.50;;;8.50;99.90;;;;;;5075308;28;20089;-75
2023/03/27 11:04:07;;;;;;;1.02;0.50;;;7.30;99.90;;;;;;5082099;28;20059;-75
2023/03/27 11:06:38;;;;;;;1.08;0.68;;;6.20;99.90;;;;;;5093556;28;20384;-75
2023/03/27 11:09:23;;;;;;;2.22;0.63;;;5.60;99.90;;;;;;5093777;28;20039;-75
2023/03/27 11:12:00;;;;;;;1.55;0.93;;;5.30;99.90;;;;;;5075475;28;20056;-76
2023/03/27 11:14:32;;;;;;;1.70;0.60;;;5.60;99.90;;;;;;5093377;28;20059;-76
2023/03/27 11:17:02;;;;;;;3.30;0.95;;;6.10;99.90;;;;;;5093863;28;20052;-74
2023/03/27 11:20:06;;;;;;;1.52;0.55;;;6.60;99.90;;;;;;5094048;28;20052;-75
2023/03/27 11:22:38;;;;;;;2.92;0.77;;;6.90;99.90;;;;;;5091933;28;20056;-77
2023/03/27 11:25:18;;;;;;;1.73;0.50;;;7.20;99.90;;;;;;5075135;28;20048;-77
2023/03/27 11:27:57;;;;;;;1.80;0.60;;;7.40;99.90;;;;;;5093372;28;20048;-77
2023/03/27 11:30:40;;;;;;;1.65;0.52;;;7.50;99.90;;;;;;5093326;28;20036;-75
2023/03/27 11:33:34;;;;;;;0.90;0.50;;;7.50;99.90;;;;;;5075483;28;20048;-74
2023/03/27 11:36:04;;;;;;;1.63;0.50;;;7.60;99.90;;;;;;5093189;28;20048;-73
2023/03/27 11:38:36;;;;;;;2.55;0.73;;;7.60;99.90;;;;;;5093440;28;20086;-75
2023/03/27 11:41:02;;;;;;;3.05;0.73;;;7.80;99.90;;;;;;5097718;28;20466;-77
2023/03/27 11:43:27;;;;;;;2.17;0.60;;;8.10;99.90;;;;;;5097386;28;20115;-74
2023/03/27 11:46:25;;;;;;;2.85;0.65;;;8.20;99.90;;;;;;5063336;28;20048;-74
2023/03/27 11:49:04;;;;;;;1.38;0.40;;;8.40;99.90;;;;;;5097218;28;20048;-77
2023/03/27 11:51:56;;;;;;;7.55;0.90;;;8.30;99.90;;;;;;5097219;28;20058;-75
2023/03/27 11:54:47;;;;;;;4.00;0.52;;;8.00;99.90;;;;;;5097225;28;20083;-75
2023/03/27 11:57:24;;;;;;;3.30;0.98;;;7.90;99.90;;;;;;5078914;28;20048;-74
2023/03/27 12:00:10;;;;;;;1.08;0.50;;;8.10;99.90;;;;;;5097435;28;20040;-75
2023/03/27 12:02:54;;;;;;;1.88;0.50;;;8.20;99.90;;;;;;5097073;28;20098;-77
2023/03/27 12:05:42;;;;;;;2.28;0.55;;;8.40;99.90;;;;;;5097455;28;20047;-79
2023/03/27 12:08:33;;;;;;;1.05;0.60;;;8.70;99.90;;;;;;5079283;28;20079;-76
2023/03/27 12:11:01;;;;;;;1.73;0.55;;;9.00;99.90;;;;;;5078736;28;20115;-77
2023/03/27 12:13:39;;;;;;;1.70;0.60;;;9.10;99.90;;;;;;5062979;28;20465;-76
2023/03/27 12:16:26;;;;;;;1.73;0.70;;;9.30;99.90;;;;;;5079596;28;20131;-73
2023/03/27 12:19:07;;;;;;;2.58;0.85;;;9.30;99.90;;;;;;5078490;28;20059;-75
2023/03/27 12:21:45;;;;;;;2.70;0.60;;;9.10;99.90;;;;;;5097100;28;20385;-77
2023/03/27 12:24:35;;;;;;;2.25;0.70;;;8.60;99.90;;;;;;5096870;28;20048;-75
2023/03/27 12:27:14;;;;;;;3.50;0.60;;;8.00;99.90;;;;;;5096586;28;20071;-76
2023/03/27 12:30:04;;;;;;;2.03;0.70;;;7.30;99.90;;;;;;5096503;28;20044;-74
2023/03/27 12:32:51;;;;;;;1.40;0.55;;;7.00;99.90;;;;;;5096488;28;20052;-76
2023/03/27 12:35:20;;;;;;;2.00;0.63;;;7.10;99.90;;;;;;5096500;28;20119;-76
2023/03/27 12:37:59;;;;;;;2.03;0.65;;;7.50;99.90;;;;;;5078214;28;20389;-77
2023/03/27 12:40:30;;;;;;;1.52;0.70;;;8.00;99.90;;;;;;5079002;28;20084;-77
2023/03/27 12:43:20;;;;;;;2.42;1.05;;;8.50;99.90;;;;;;5078201;28;20084;-76
2023/03/27 12:46:22;;;;;;;4.78;0.88;;;8.90;99.90;;;;;;5095837;28;20083;-76
2023/03/27 12:48:55;;;;;;;2.90;0.70;;;9.60;99.90;;;;;;5096114;28;20109;-75
2023/03/27 12:52:03;;;;;;;2.38;0.68;;;9.70;99.90;;;;;;5077377;28;20548;-75
2023/03/27 12:54:37;;;;;;;4.30;0.60;;;9.80;99.90;;;;;;5096613;28;20122;-75
2023/03/27 12:57:20;;;;;;;3.28;0.80;;;9.90;99.90;;;;;;5096052;28;20091;-74
2023/03/27 12:59:58;;;;;;;2.58;0.60;;;9.60;99.90;;;;;;5078513;28;20433;-76
2023/03/27 13:03:03;;;;;;;2.83;1.00;;;8.80;99.90;;;;;;5077893;28;20084;-77
2023/03/27 13:05:43;;;;;;;2.30;0.70;;;8.20;99.90;;;;;;5061625;28;20461;-77
2023/03/27 13:08:21;;;;;;;2.53;0.80;;;7.60;99.90;;;;;;5078172;28;20052;-76
2023/03/27 13:11:16;;;;;;;2.03;0.70;;;7.70;99.90;;;;;;5096177;28;20040;-75
2023/03/27 13:13:53;;;;;;;2.30;0.60;;;8.50;99.90;;;;;;5095309;28;20480;-77
2023/03/27 13:16:37;;;;;;;2.05;0.70;;;9.50;99.90;;;;;;5077726;28;20393;-77
2023/03/27 13:19:13;;;;;;;4.00;0.75;;;10.30;99.90;;;;;;5077662;28;20113;-76
2023/03/27 13:21:45;;;;;;;;;;;10.40;99.90;;;;;;5096114;28;20044;-74
2023/03/27 13:24:14;;;;;;;2.90;0.73;;;9.50;99.90;;;;;;5095629;28;20365;-75
2023/03/27 13:27:12;;;;;;;6.72;1.02;;;8.90;99.90;;;;;;5078239;28;20475;-75
2023/03/27 13:29:38;;;;;;;2.28;0.63;;;8.80;99.90;;;;;;5095450;28;20056;-76